Time;durP1;ratioP1;P1;durP2;ratioP2;P2;SDS_P1;SDS_P2;PMS_P1;PMS_P2;Temp;Humidity;BMP_temperature;BMP_pressure;BME280_temperature;BME280_humidity;BME280_pressure;Samples;Min_cycle;Max_cycle;Signal;HPM_P1;HPM_P2
2023/03/21 00:00:28;;;;;;;124.18;26.10;;;;;;;;;;5044080;28;20029;-76
2023/03/21 00:02:54;;;;;;;137.05;27.95;;;;;;;;;;5040649;28;20428;-75
2023/03/21 00:05:21;;;;;;;132.57;25.85;;;;;;;;;;5029078;28;20377;-76
2023/03/21 00:07:47;;;;;;;135.68;26.10;;;;;;;;;;5039779;28;20049;-76
2023/03/21 00:10:13;;;;;;;141.73;26.77;;;;;;;;;;5042840;28;20029;-77
2023/03/21 00:12:39;;;;;;;111.95;24.80;;;;;;;;;;5041388;28;20029;-77
2023/03/21 00:15:06;;;;;;;98.75;26.50;;;;;;;;;;5022003;28;20060;-76
2023/03/21 00:17:33;;;;;;;143.55;29.15;;;;;;;;;;5042933;28;20044;-76
2023/03/21 00:20:00;;;;;;;116.28;26.38;;;;;;;;;;5044347;28;20124;-76
2023/03/21 00:22:27;;;;;;;112.47;25.85;;;;;;;;;;5037861;28;20656;-75
2023/03/21 00:24:55;;;;;;;92.15;25.02;;;;;;;;;;5044534;28;20639;-75
2023/03/21 00:27:21;;;;;;;107.15;25.17;;;;;;;;;;5042200;28;20034;-76
2023/03/21 00:29:48;;;;;;;98.80;24.05;;;;;;;;;;5040967;28;20403;-76
2023/03/21 00:32:15;;;;;;;84.63;22.17;;;;;;;;;;5046151;28;20025;-76
2023/03/21 00:34:42;;;;;;;86.15;23.70;;;;;;;;;;5041010;28;20110;-76
2023/03/21 00:37:08;;;;;;;84.03;23.17;;;;;;;;;;5040657;28;20028;-76
2023/03/21 00:39:35;;;;;;;80.95;22.42;;;;;;;;;;5024166;28;20472;-76
2023/03/21 00:42:01;;;;;;;85.32;24.08;;;;;;;;;;5038847;28;20036;-76
2023/03/21 00:44:28;;;;;;;89.05;24.17;;;;;;;;;;5060410;28;20029;-76
2023/03/21 00:46:54;;;;;;;91.53;24.48;;;;;;;;;;5042309;28;20598;-76
2023/03/21 00:49:20;;;;;;;79.57;23.75;;;;;;;;;;5026228;28;20025;-77
2023/03/21 00:51:50;;;;;;;83.60;22.23;;;;;;;;;;5046485;28;20757;-76
2023/03/21 00:54:16;;;;;;;81.45;23.23;;;;;;;;;;5040524;28;20037;-77
2023/03/21 00:56:43;;;;;;;84.55;25.05;;;;;;;;;;5046666;28;20029;-76
2023/03/21 00:59:09;;;;;;;86.15;24.77;;;;;;;;;;5060505;28;20029;-77
2023/03/21 01:01:35;;;;;;;86.68;24.10;;;;;;;;;;5041205;28;20037;-77
2023/03/21 01:04:04;;;;;;;69.65;23.92;;;;;;;;;;5038160;28;20029;-76
2023/03/21 01:06:30;;;;;;;91.05;25.05;;;;;;;;;;5042316;28;20120;-77
2023/03/21 01:08:56;;;;;;;88.40;24.65;;;;;;;;;;5043000;28;20029;-76
2023/03/21 01:11:27;;;;;;;90.00;25.60;;;;;;;;;;5041436;28;20047;-76
2023/03/21 01:13:54;;;;;;;74.90;25.23;;;;;;;;;;5055101;28;20018;-75
2023/03/21 01:16:21;;;;;;;80.25;24.92;;;;;;;;;;5044326;28;20026;-76
2023/03/21 01:18:47;;;;;;;71.90;23.40;;;;;;;;;;5041104;28;20527;-75
2023/03/21 01:21:13;;;;;;;70.80;24.73;;;;;;;;;;5044357;28;20110;-76
2023/03/21 01:23:41;;;;;;;60.30;23.83;;;;;;;;;;5043534;28;20037;-75
2023/03/21 01:26:08;;;;;;;59.75;23.50;;;;;;;;;;5037769;28;20540;-76
2023/03/21 01:28:35;;;;;;;52.45;22.48;;;;;;;;;;5036233;28;20052;-75
2023/03/21 01:31:02;;;;;;;49.53;22.15;;;;;;;;;;5040052;28;20028;-76
2023/03/21 01:33:28;;;;;;;45.92;21.58;;;;;;;;;;5039490;28;20032;-75
2023/03/21 01:35:54;;;;;;;48.30;21.27;;;;;;;;;;5039831;28;20021;-75
2023/03/21 01:38:21;;;;;;;45.17;20.95;;;;;;;;;;5043496;28;20025;-75
2023/03/21 01:40:48;;;;;;;40.70;20.25;;;;;;;;;;5043313;28;20094;-75
2023/03/21 01:43:26;;;;;;;42.90;20.92;;;;;;;;;;5039915;28;21263;-75
2023/03/21 01:46:10;;;;;;;32.45;17.52;;;;;;;;;;5043595;28;20097;-75
2023/03/21 01:48:38;;;;;;;34.05;19.45;;;;;;;;;;5047319;28;20017;-75
2023/03/21 01:51:04;;;;;;;34.03;19.48;;;;;;;;;;5054865;28;20061;-76
2023/03/21 01:53:33;;;;;;;32.85;19.05;;;;;;;;;;5043054;28;20025;-75
2023/03/21 01:56:01;;;;;;;29.13;17.58;;;;;;;;;;5044599;28;20051;-76
2023/03/21 01:58:28;;;;;;;28.90;18.05;;;;;;;;;;5043411;28;20037;-75
2023/03/21 02:00:55;;;;;;;25.83;16.95;;;;;;;;;;5037882;28;20024;-76
2023/03/21 02:03:21;;;;;;;30.17;18.42;;;;;;;;;;5039940;28;20039;-75
2023/03/21 02:05:47;;;;;;;28.80;17.08;;;;;;;;;;5044376;28;20149;-76
2023/03/21 02:08:14;;;;;;;26.48;15.98;;;;;;;;;;5040316;28;20056;-77
2023/03/21 02:10:41;;;;;;;23.33;16.20;;;;;;;;;;5028200;28;20029;-77
2023/03/21 02:13:10;;;;;;;24.48;17.73;;;;;;;;;;5036439;28;20029;-77
2023/03/21 02:15:49;;;;;;;24.90;17.95;;;;;;;;;;5041676;28;20033;-76
2023/03/21 02:18:15;;;;;;;26.10;17.65;;;;;;;;;;5040174;28;20055;-76
2023/03/21 02:20:54;;;;;;;22.38;15.65;;;;;;;;;;5040111;28;20465;-76
2023/03/21 02:23:39;;;;;;;26.00;17.13;;;;;;;;;;5040666;28;20021;-75
2023/03/21 02:26:28;;;;;;;27.58;17.92;;;;;;;;;;5039452;28;20090;-76
2023/03/21 02:29:01;;;;;;;24.45;18.08;;;;;;;;;;5035163;28;20489;-76
2023/03/21 02:31:27;;;;;;;23.85;16.38;;;;;;;;;;5041758;28;20488;-75
2023/03/21 02:34:03;;;;;;;22.15;17.10;;;;;;;;;;5039750;28;20032;-76
2023/03/21 02:36:47;;;;;;;25.00;18.15;;;;;;;;;;5042109;28;20075;-75
2023/03/21 02:39:16;;;;;;;25.30;18.08;;;;;;;;;;5036431;28;20406;-75
2023/03/21 02:41:46;;;;;;;25.67;17.23;;;;;;;;;;5039766;28;20461;-75
2023/03/21 02:44:18;;;;;;;27.23;18.73;;;;;;;;;;5058847;28;20512;-76
2023/03/21 02:46:57;;;;;;;24.80;18.25;;;;;;;;;;5040428;28;20126;-75
2023/03/21 02:49:29;;;;;;;27.52;18.38;;;;;;;;;;5054284;28;20029;-75
2023/03/21 02:51:57;;;;;;;29.10;18.63;;;;;;;;;;5038058;28;20044;-75
2023/03/21 02:54:25;;;;;;;30.42;17.58;;;;;;;;;;5034223;28;20041;-75
2023/03/21 02:56:53;;;;;;;32.90;18.67;;;;;;;;;;5039250;28;20021;-75
2023/03/21 02:59:20;;;;;;;32.22;19.98;;;;;;;;;;5036719;28;20040;-75
2023/03/21 03:01:46;;;;;;;31.27;18.40;;;;;;;;;;5044251;28;20079;-75
2023/03/21 03:04:26;;;;;;;30.13;18.85;;;;;;;;;;5040389;28;20095;-76
2023/03/21 03:06:52;;;;;;;32.63;19.42;;;;;;;;;;5037424;28;20029;-76
2023/03/21 03:09:26;;;;;;;35.97;19.35;;;;;;;;;;5041458;28;20028;-76
2023/03/21 03:11:58;;;;;;;32.75;19.80;;;;;;;;;;5041329;28;20075;-76
2023/03/21 03:14:44;;;;;;;33.03;19.90;;;;;;;;;;5037683;28;20033;-76
2023/03/21 03:17:17;;;;;;;33.15;19.17;;;;;;;;;;5040250;28;20075;-76
2023/03/21 03:19:55;;;;;;;32.65;18.67;;;;;;;;;;5040390;28;20053;-76
2023/03/21 03:22:27;;;;;;;35.53;18.42;;;;;;;;;;5057633;28;20481;-76
2023/03/21 03:25:02;;;;;;;34.45;18.45;;;;;;;;;;5042817;28;20037;-76
2023/03/21 03:27:31;;;;;;;33.35;18.33;;;;;;;;;;5042964;28;20033;-76
2023/03/21 03:29:58;;;;;;;33.35;17.60;;;;;;;;;;5039516;28;20507;-75
2023/03/21 03:32:29;;;;;;;36.38;18.40;;;;;;;;;;5036720;28;20358;-75
2023/03/21 03:34:56;;;;;;;37.60;17.80;;;;;;;;;;5049208;28;20017;-75
2023/03/21 03:37:27;;;;;;;38.40;17.83;;;;;;;;;;5044904;28;20021;-75
2023/03/21 03:39:58;;;;;;;38.37;17.03;;;;;;;;;;5042449;28;20556;-76
2023/03/21 03:42:26;;;;;;;36.60;17.50;;;;;;;;;;5040071;28;20068;-75
2023/03/21 03:44:53;;;;;;;37.60;19.08;;;;;;;;;;5048640;28;20647;-75
2023/03/21 03:47:38;;;;;;;33.60;16.48;;;;;;;;;;5040049;28;20029;-76
2023/03/21 03:50:20;;;;;;;32.33;17.15;;;;;;;;;;5058130;28;20033;-76
2023/03/21 03:52:51;;;;;;;34.90;17.40;;;;;;;;;;5064632;28;20056;-76
2023/03/21 03:55:20;;;;;;;34.00;17.00;;;;;;;;;;5042210;28;20540;-76
2023/03/21 03:57:46;;;;;;;36.95;16.73;;;;;;;;;;5045878;28;20032;-75
2023/03/21 04:00:14;;;;;;;37.83;17.00;;;;;;;;;;5043588;28;20021;-75
2023/03/21 04:02:41;;;;;;;39.63;16.55;;;;;;;;;;5044432;28;20025;-76
2023/03/21 04:05:07;;;;;;;37.95;17.27;;;;;;;;;;5042485;28;20056;-76
2023/03/21 04:07:33;;;;;;;33.80;18.23;;;;;;;;;;5047735;28;20052;-76
2023/03/21 04:09:59;;;;;;;36.55;17.02;;;;;;;;;;5044192;28;20358;-76
2023/03/21 04:12:26;;;;;;;37.53;18.38;;;;;;;;;;5043496;28;20061;-75
2023/03/21 04:14:52;;;;;;;44.53;18.70;;;;;;;;;;5042531;28;20474;-75
2023/03/21 04:17:18;;;;;;;39.35;18.27;;;;;;;;;;5042179;28;20021;-75
2023/03/21 04:19:45;;;;;;;45.35;19.02;;;;;;;;;;5044443;28;20111;-76
2023/03/21 04:22:12;;;;;;;43.95;18.90;;;;;;;;;;5042463;28;20037;-76
2023/03/21 04:24:38;;;;;;;43.13;19.30;;;;;;;;;;5026314;28;20043;-75
2023/03/21 04:27:05;;;;;;;41.90;19.25;;;;;;;;;;5043933;28;20435;-76
2023/03/21 04:29:32;;;;;;;36.85;19.27;;;;;;;;;;5040965;28;20017;-76
2023/03/21 04:31:58;;;;;;;38.25;18.80;;;;;;;;;;5043462;28;20079;-75
2023/03/21 04:34:26;;;;;;;42.50;19.90;;;;;;;;;;5037606;28;20040;-75
2023/03/21 04:36:53;;;;;;;40.35;18.90;;;;;;;;;;5022554;28;20382;-75
2023/03/21 04:39:20;;;;;;;44.72;20.63;;;;;;;;;;5043955;28;20500;-76
2023/03/21 04:41:47;;;;;;;37.47;19.92;;;;;;;;;;5041150;28;20489;-75
2023/03/21 04:44:14;;;;;;;36.70;20.27;;;;;;;;;;5044813;28;20116;-75
2023/03/21 04:46:40;;;;;;;36.30;20.63;;;;;;;;;;5037506;28;20033;-75
2023/03/21 04:49:07;;;;;;;38.38;19.52;;;;;;;;;;5040025;28;20072;-76
2023/03/21 04:51:33;;;;;;;36.03;20.30;;;;;;;;;;5044284;28;20031;-75
2023/03/21 04:53:59;;;;;;;36.55;20.52;;;;;;;;;;5042208;28;21809;-75
2023/03/21 04:56:31;;;;;;;45.65;21.52;;;;;;;;;;5053181;28;20082;-75
2023/03/21 04:59:01;;;;;;;41.13;21.33;;;;;;;;;;5037117;28;20057;-76
2023/03/21 05:01:31;;;;;;;37.55;19.08;;;;;;;;;;5059819;28;20029;-75
2023/03/21 05:03:58;;;;;;;36.33;20.35;;;;;;;;;;5038814;28;20032;-75
2023/03/21 05:06:25;;;;;;;38.42;20.95;;;;;;;;;;5042018;28;20071;-76
2023/03/21 05:08:51;;;;;;;37.85;21.02;;;;;;;;;;5042502;28;20137;-76
2023/03/21 05:11:17;;;;;;;39.40;20.88;;;;;;;;;;5029000;28;20532;-76
2023/03/21 05:13:43;;;;;;;41.50;19.90;;;;;;;;;;5037281;28;20029;-75
2023/03/21 05:16:10;;;;;;;37.13;18.52;;;;;;;;;;5042518;28;20033;-77
2023/03/21 05:18:37;;;;;;;38.03;19.23;;;;;;;;;;5016228;28;20037;-75
2023/03/21 05:21:06;;;;;;;37.92;19.52;;;;;;;;;;5040998;28;20044;-76
2023/03/21 05:23:37;;;;;;;34.47;19.23;;;;;;;;;;5039457;28;20031;-75
2023/03/21 05:26:04;;;;;;;38.33;19.45;;;;;;;;;;5038845;28;20738;-75
2023/03/21 05:28:31;;;;;;;37.60;19.50;;;;;;;;;;5041039;28;22035;-75
2023/03/21 05:30:57;;;;;;;37.85;18.95;;;;;;;;;;5037579;28;20524;-74
2023/03/21 05:33:23;;;;;;;37.42;18.67;;;;;;;;;;5041578;28;20032;-75
2023/03/21 05:35:52;;;;;;;36.60;18.65;;;;;;;;;;5040019;28;20462;-75
2023/03/21 05:38:22;;;;;;;37.47;18.85;;;;;;;;;;5043996;28;20028;-77
2023/03/21 05:40:49;;;;;;;38.17;19.73;;;;;;;;;;5049344;28;20104;-72
2023/03/21 05:43:15;;;;;;;37.42;18.98;;;;;;;;;;5040788;28;20473;-77
2023/03/21 05:45:47;;;;;;;38.30;18.88;;;;;;;;;;5029313;28;20044;-77
2023/03/21 05:48:13;;;;;;;35.50;17.65;;;;;;;;;;5055992;28;20032;-76
2023/03/21 05:50:42;;;;;;;38.80;18.35;;;;;;;;;;5038709;28;20031;-76
2023/03/21 05:53:08;;;;;;;52.42;29.23;;;;;;;;;;5025743;28;20044;-81
2023/03/21 05:55:34;;;;;;;42.03;21.27;;;;;;;;;;5048761;28;20060;-76
2023/03/21 05:58:00;;;;;;;35.35;18.70;;;;;;;;;;5058951;28;20484;-76
2023/03/21 06:00:27;;;;;;;36.83;19.10;;;;;;;;;;5044887;28;20078;-76
2023/03/21 06:02:56;;;;;;;37.63;19.80;;;;;;;;;;5031876;28;20428;-76
2023/03/21 06:05:22;;;;;;;36.95;19.67;;;;;;;;;;5029927;28;20034;-77
2023/03/21 06:07:48;;;;;;;40.47;20.35;;;;;;;;;;5028140;28;20120;-78
2023/03/21 06:10:14;;;;;;;40.10;21.10;;;;;;;;;;5048780;28;20499;-78
2023/03/21 06:12:42;;;;;;;43.30;21.48;;;;;;;;;;5045560;28;21389;-77
2023/03/21 06:15:08;;;;;;;36.28;20.83;;;;;;;;;;5049314;28;20665;-78
2023/03/21 06:17:34;;;;;;;36.50;20.92;;;;;;;;;;5062360;28;20045;-77
2023/03/21 06:20:01;;;;;;;38.50;20.60;;;;;;;;;;5047007;28;20021;-75
2023/03/21 06:22:27;;;;;;;35.55;19.40;;;;;;;;;;5049805;28;20029;-76
2023/03/21 06:24:53;;;;;;;38.65;19.48;;;;;;;;;;5050389;28;20032;-75
2023/03/21 06:27:19;;;;;;;35.17;19.30;;;;;;;;;;5030409;28;20041;-76
2023/03/21 06:29:46;;;;;;;33.75;19.88;;;;;;;;;;5047450;28;20033;-76
2023/03/21 06:32:12;;;;;;;36.85;19.13;;;;;;;;;;5036780;28;20032;-78
2023/03/21 06:34:38;;;;;;;36.17;19.48;;;;;;;;;;5048863;28;20120;-78
2023/03/21 06:37:10;;;;;;;58.53;35.75;;;;;;;;;;5039289;28;20036;-82
2023/03/21 06:39:37;;;;;;;31.60;18.63;;;;;;;;;;5045255;28;20054;-77
2023/03/21 06:42:03;;;;;;;33.17;18.42;;;;;;;;;;5057460;28;20106;-75
2023/03/21 06:44:31;;;;;;;34.58;18.48;;;;;;;;;;5047321;28;20051;-75
2023/03/21 06:46:58;;;;;;;30.27;17.50;;;;;;;;;;5024350;28;20131;-76
2023/03/21 06:49:25;;;;;;;31.02;17.10;;;;;;;;;;5040469;28;20338;-75
2023/03/21 06:58:51;;;;;;;24.38;15.05;;;;;;;;;;4996264;28;20087;-77
2023/03/21 07:01:20;;;;;;;20.38;13.70;;;;;;;;;;5032213;28;20115;-77
2023/03/21 07:03:47;;;;;;;25.75;14.95;;;;;;;;;;5039714;28;20036;-77
2023/03/21 07:06:13;;;;;;;22.77;14.35;;;;;;;;;;5021339;28;20036;-76
2023/03/21 07:09:17;;;;;;;;;;;;;;;;;;;;;
2023/03/21 07:11:43;;;;;;;19.02;13.23;;;;;;;;;;5044390;28;20034;-77
2023/03/21 07:14:09;;;;;;;21.73;14.57;;;;;;;;;;5043129;28;20473;-76
2023/03/21 07:16:35;;;;;;;20.75;14.65;;;;;;;;;;5047132;28;20029;-76
2023/03/21 07:19:01;;;;;;;23.17;14.63;;;;;;;;;;5048764;28;20059;-76
2023/03/21 07:21:28;;;;;;;23.38;15.10;;;;;;;;;;5045912;28;20028;-77
2023/03/21 07:23:54;;;;;;;24.80;15.23;;;;;;;;;;5046189;28;20025;-76
2023/03/21 07:26:20;;;;;;;22.52;15.18;;;;;;;;;;5045390;28;20037;-75
2023/03/21 07:28:46;;;;;;;17.42;12.85;;;;;;;;;;5046836;28;20449;-76
2023/03/21 07:37:08;;;;;;;20.85;13.88;;;;;;;;;;5042559;28;20532;-75
2023/03/21 07:39:35;;;;;;;16.60;12.95;;;;;;;;;;5052081;28;20053;-74
2023/03/21 07:42:02;;;;;;;17.83;12.88;;;;;;;;;;5050535;28;20055;-75
2023/03/21 07:44:34;;;;;;;22.15;16.10;;;;;;;;;;5041095;28;20041;-73
2023/03/21 07:47:01;;;;;;;18.42;12.57;;;;;;;;;;5038282;28;20057;-76
2023/03/21 07:49:27;;;;;;;18.50;13.30;;;;;;;;;;5038575;28;20037;-75
2023/03/21 07:52:01;;;;;;;17.45;12.98;;;;;;;;;;5051539;28;20449;-75
2023/03/21 07:54:51;;;;;;;18.30;13.45;;;;;;;;;;5040589;28;21163;-75
2023/03/21 07:57:17;;;;;;;19.20;12.73;;;;;;;;;;5037037;28;20040;-75
2023/03/21 08:00:21;;;;;;;;;;;;;;;;;;;;;
2023/03/21 08:02:47;;;;;;;18.38;13.30;;;;;;;;;;5035627;28;20104;-75
2023/03/21 08:21:03;;;;;;;18.98;12.98;;;;;;;;;;4946432;28;20053;-76
2023/03/21 08:23:29;;;;;;;19.50;13.32;;;;;;;;;;5014574;28;20529;-75
2023/03/21 08:41:58;;;;;;;24.75;15.65;;;;;;;;;;4881561;29;20071;-75
2023/03/21 08:44:41;;;;;;;21.13;14.85;;;;;;;;;;4861134;29;20521;-74
2023/03/21 08:47:16;;;;;;;24.13;15.32;;;;;;;;;;4917803;28;20136;-74
2023/03/21 08:49:45;;;;;;;24.05;16.20;;;;;;;;;;5002689;28;20037;-75
2023/03/21 09:11:03;;;;;;;32.40;20.52;;;;;;;;;;4989493;28;20505;-74
2023/03/21 09:14:04;;;;;;;;;;;;;;;;;;;;;
2023/03/21 09:16:31;;;;;;;32.50;20.42;;;;;;;;;;4981026;28;20501;-69
2023/03/21 09:37:57;;;;;;;26.08;17.58;;;;;;;;;;5050499;28;20485;-74
2023/03/21 09:40:48;;;;;;;30.15;17.42;;;;;;;;;;5041505;28;20037;-72
2023/03/21 09:43:46;;;;;;;28.92;16.60;;;;;;;;;;5043094;28;20112;-75
2023/03/21 09:46:31;;;;;;;28.33;15.98;;;;;;;;;;5026662;28;20041;-72
2023/03/21 09:48:58;;;;;;;31.77;16.17;;;;;;;;;;5022208;28;20498;-72
2023/03/21 09:51:27;;;;;;;30.90;16.50;;;;;;;;;;5028980;28;20033;-74
2023/03/21 09:53:55;;;;;;;31.17;16.30;;;;;;;;;;5027720;28;20520;-71
2023/03/21 09:56:23;;;;;;;30.33;16.42;;;;;;;;;;5017426;28;20033;-74
2023/03/21 09:58:53;;;;;;;32.28;16.67;;;;;;;;;;5009471;28;20041;-73
2023/03/21 10:01:26;;;;;;;27.77;14.93;;;;;;;;;;5026615;28;20030;-73
2023/03/21 10:03:53;;;;;;;;;;;;;;;;;;5028278;28;20033;-73
2023/03/21 10:06:27;;;;;;;27.85;16.02;;;;;;;;;;5014993;28;19996;-76
2023/03/21 10:18:40;;;;;;;31.70;15.02;;;;;;;;;;4880106;29;20525;-73
2023/03/21 10:21:07;;;;;;;27.23;14.60;;;;;;;;;;4895735;29;20041;-74
2023/03/21 10:23:34;;;;;;;22.08;13.05;;;;;;;;;;4921696;29;20142;-74
2023/03/21 11:19:45;;;;;;;19.65;9.55;;;;;;;;;;5048862;28;20496;-73
2023/03/21 11:22:15;;;;;;;16.42;8.93;;;;;;;;;;5061145;28;20032;-73
2023/03/21 11:24:54;;;;;;;19.15;9.38;;;;;;;;;;5056679;28;20159;-75
2023/03/21 11:27:20;;;;;;;15.35;8.77;;;;;;;;;;5067756;28;20037;-73
2023/03/21 11:30:19;;;;;;;;;;;;;;;;;;;;;
2023/03/21 11:32:45;;;;;;;15.68;9.40;;;;;;;;;;5060758;28;20040;-72
2023/03/21 11:35:38;;;;;;;15.45;8.43;;;;;;;;;;5069803;28;20425;-76
2023/03/21 11:38:08;;;;;;;13.65;8.10;;;;;;;;;;5064949;28;20606;-73
2023/03/21 11:40:36;;;;;;;18.63;8.55;;;;;;;;;;5057388;28;20401;-73
2023/03/21 11:43:11;;;;;;;15.75;8.48;;;;;;;;;;5042193;28;20040;-72
2023/03/21 11:45:37;;;;;;;19.17;8.38;;;;;;;;;;5071854;28;20024;-73
2023/03/21 11:48:22;;;;;;;15.13;8.35;;;;;;;;;;5060365;28;20029;-74
2023/03/21 11:50:50;;;;;;;33.25;17.42;;;;;;;;;;5056661;28;20495;-74
2023/03/21 11:53:25;;;;;;;13.88;8.02;;;;;;;;;;5042653;28;20025;-75
2023/03/21 11:56:21;;;;;;;17.42;8.02;;;;;;;;;;5036763;28;20045;-75
2023/03/21 11:59:00;;;;;;;22.73;8.60;;;;;;;;;;5034745;28;20025;-75
2023/03/21 12:01:46;;;;;;;16.60;7.82;;;;;;;;;;5058153;28;20095;-73
2023/03/21 12:04:18;;;;;;;17.10;8.90;;;;;;;;;;5062327;28;20029;-75
2023/03/21 12:07:16;;;;;;;14.50;8.30;;;;;;;;;;5034890;28;20061;-75
2023/03/21 12:09:54;;;;;;;15.35;8.63;;;;;;;;;;5025448;28;20049;-76
2023/03/21 12:12:47;;;;;;;16.23;7.22;;;;;;;;;;5008916;28;20278;-75
2023/03/21 12:15:22;;;;;;;15.85;7.38;;;;;;;;;;5008599;28;20029;-79
2023/03/21 12:18:03;;;;;;;13.60;6.80;;;;;;;;;;5014928;28;20041;-72
2023/03/21 12:20:44;;;;;;;10.10;6.60;;;;;;;;;;5018406;28;23217;-74
2023/03/21 12:23:22;;;;;;;15.23;7.40;;;;;;;;;;4999001;28;20039;-75
2023/03/21 12:25:56;;;;;;;14.32;6.95;;;;;;;;;;5023793;28;20033;-75
2023/03/21 12:28:39;;;;;;;14.85;7.40;;;;;;;;;;5008382;28;20042;-75
2023/03/21 12:31:38;;;;;;;;;;;;;;;;;;;;;
2023/03/21 12:34:23;;;;;;;16.35;7.90;;;;;;;;;;5030453;28;20029;-75
2023/03/21 12:37:25;;;;;;;15.02;6.75;;;;;;;;;;5009010;28;20195;-76
2023/03/21 12:40:17;;;;;;;15.90;7.80;;;;;;;;;;5011751;28;20510;-75
2023/03/21 12:43:15;;;;;;;14.00;7.82;;;;;;;;;;5023693;28;20041;-75
2023/03/21 12:46:21;;;;;;;18.92;7.40;;;;;;;;;;5025215;28;20029;-76
2023/03/21 12:52:26;;;;;;;16.80;8.18;;;;;;;;;;4952284;28;20063;-76
2023/03/21 12:55:21;;;;;;;17.55;7.63;;;;;;;;;;4939468;29;20218;-76
2023/03/21 12:58:11;;;;;;;17.75;7.47;;;;;;;;;;5012399;28;20114;-75
2023/03/21 13:00:56;;;;;;;15.88;7.78;;;;;;;;;;5029626;28;20049;-76
2023/03/21 13:03:44;;;;;;;19.02;7.57;;;;;;;;;;5024492;28;20030;-76
2023/03/21 13:06:13;;;;;;;17.35;7.10;;;;;;;;;;5010804;28;20033;-76
2023/03/21 13:08:48;;;;;;;12.07;7.78;;;;;;;;;;5028182;28;20052;-76
2023/03/21 13:11:20;;;;;;;17.98;7.72;;;;;;;;;;5067567;28;20025;-75
2023/03/21 13:13:57;;;;;;;13.20;7.70;;;;;;;;;;5061063;28;20024;-75
2023/03/21 13:16:23;;;;;;;15.25;7.68;;;;;;;;;;5059592;28;20079;-75
2023/03/21 13:18:59;;;;;;;10.10;6.88;;;;;;;;;;5046802;28;20021;-74
2023/03/21 13:21:25;;;;;;;14.35;7.30;;;;;;;;;;5056011;28;20033;-75
2023/03/21 13:24:02;;;;;;;22.48;7.93;;;;;;;;;;5066494;28;20037;-74
2023/03/21 13:26:41;;;;;;;13.38;8.85;;;;;;;;;;5050223;28;20383;-75
2023/03/21 13:29:15;;;;;;;15.77;7.82;;;;;;;;;;5049939;28;20454;-75
2023/03/21 13:31:45;;;;;;;17.45;8.77;;;;;;;;;;5068778;28;20102;-74
2023/03/21 13:34:12;;;;;;;15.73;7.93;;;;;;;;;;5065750;28;20330;-75
2023/03/21 13:36:40;;;;;;;18.98;8.07;;;;;;;;;;5048703;28;20377;-74
2023/03/21 13:39:15;;;;;;;16.38;8.73;;;;;;;;;;5048920;28;20029;-74
2023/03/21 13:41:43;;;;;;;13.20;7.90;;;;;;;;;;5050390;28;20036;-75
2023/03/21 13:44:18;;;;;;;18.75;7.57;;;;;;;;;;5066267;28;20061;-75
2023/03/21 13:46:53;;;;;;;11.43;7.43;;;;;;;;;;5049202;28;20035;-74
2023/03/21 13:49:27;;;;;;;13.63;7.35;;;;;;;;;;5049224;28;20091;-74
2023/03/21 13:51:57;;;;;;;16.67;8.63;;;;;;;;;;5050141;28;20406;-75
2023/03/21 13:54:28;;;;;;;16.50;8.07;;;;;;;;;;5065335;28;20123;-75
2023/03/21 13:57:00;;;;;;;19.05;7.72;;;;;;;;;;5052669;28;20028;-75
2023/03/21 13:59:32;;;;;;;19.17;8.47;;;;;;;;;;5064444;28;20036;-75
2023/03/21 14:01:58;;;;;;;17.70;7.88;;;;;;;;;;5065950;28;20083;-74
2023/03/21 14:04:30;;;;;;;15.52;8.00;;;;;;;;;;5065535;28;20032;-75
2023/03/21 14:07:04;;;;;;;18.77;8.87;;;;;;;;;;5045019;28;20025;-76
2023/03/21 14:09:36;;;;;;;16.00;7.32;;;;;;;;;;5025371;28;20053;-75
2023/03/21 14:12:03;;;;;;;15.07;8.47;;;;;;;;;;5028806;28;20046;-75
2023/03/21 14:14:32;;;;;;;14.07;8.90;;;;;;;;;;5005006;28;20030;-74
2023/03/21 14:16:58;;;;;;;18.88;7.97;;;;;;;;;;5012455;28;20029;-75
2023/03/21 14:19:31;;;;;;;13.85;7.70;;;;;;;;;;4992577;28;20435;-74
2023/03/21 14:21:58;;;;;;;16.70;8.13;;;;;;;;;;5006951;28;20033;-74
2023/03/21 14:24:24;;;;;;;16.35;8.70;;;;;;;;;;5040864;28;20421;-74
2023/03/21 14:26:51;;;;;;;16.15;8.02;;;;;;;;;;5036197;28;20450;-74
2023/03/21 14:29:20;;;;;;;19.90;8.30;;;;;;;;;;5011610;28;20446;-74
2023/03/21 14:31:47;;;;;;;15.90;7.97;;;;;;;;;;5031309;28;20040;-74
2023/03/21 14:34:15;;;;;;;21.75;8.05;;;;;;;;;;5024508;28;20112;-74
2023/03/21 14:36:42;;;;;;;18.63;8.93;;;;;;;;;;5024280;28;20157;-74
2023/03/21 14:39:15;;;;;;;16.15;8.30;;;;;;;;;;5027714;28;20500;-74
2023/03/21 14:41:55;;;;;;;18.77;8.05;;;;;;;;;;5012955;28;20627;-74
2023/03/21 14:44:25;;;;;;;18.45;8.10;;;;;;;;;;5023253;28;20026;-75
2023/03/21 14:46:52;;;;;;;13.45;7.75;;;;;;;;;;5023084;28;20033;-75
2023/03/21 14:49:19;;;;;;;14.95;7.38;;;;;;;;;;5029808;28;20088;-75
2023/03/21 14:51:45;;;;;;;13.90;8.07;;;;;;;;;;5028893;28;20022;-75
2023/03/21 14:54:16;;;;;;;18.65;8.88;;;;;;;;;;5008781;28;20042;-77
2023/03/21 14:56:46;;;;;;;16.95;9.45;;;;;;;;;;5022930;28;20504;-74
2023/03/21 14:59:14;;;;;;;19.67;9.07;;;;;;;;;;5028403;28;20021;-75
2023/03/21 15:01:40;;;;;;;19.02;8.77;;;;;;;;;;5008281;28;20478;-74
2023/03/21 15:04:07;;;;;;;15.98;9.15;;;;;;;;;;5028456;28;20033;-75
2023/03/21 15:06:34;;;;;;;17.92;8.70;;;;;;;;;;5011634;28;20028;-75
2023/03/21 15:09:04;;;;;;;18.15;8.93;;;;;;;;;;5036156;28;20133;-75
2023/03/21 15:11:32;;;;;;;18.50;9.95;;;;;;;;;;5046156;28;20112;-75
2023/03/21 15:13:59;;;;;;;15.30;9.35;;;;;;;;;;5049016;28;20029;-74
2023/03/21 15:16:26;;;;;;;18.35;9.82;;;;;;;;;;5064105;28;20035;-74
2023/03/21 15:18:52;;;;;;;14.75;9.02;;;;;;;;;;5046023;28;20056;-75
2023/03/21 15:21:23;;;;;;;16.63;8.90;;;;;;;;;;5040288;28;20048;-75
2023/03/21 15:23:53;;;;;;;16.40;9.43;;;;;;;;;;5049069;28;20376;-74
2023/03/21 15:26:20;;;;;;;17.92;9.75;;;;;;;;;;5048381;28;20044;-75
2023/03/21 15:28:49;;;;;;;14.35;9.10;;;;;;;;;;5048006;28;20051;-74
2023/03/21 15:31:35;;;;;;;21.80;10.02;;;;;;;;;;5046667;28;20033;-75
2023/03/21 15:34:03;;;;;;;15.65;10.20;;;;;;;;;;5052236;28;20113;-74
2023/03/21 15:36:35;;;;;;;17.67;9.57;;;;;;;;;;5052748;28;20484;-74
2023/03/21 15:39:04;;;;;;;16.73;9.77;;;;;;;;;;5067982;28;20047;-75
2023/03/21 15:41:31;;;;;;;18.95;10.27;;;;;;;;;;5051935;28;20081;-75
2023/03/21 15:44:00;;;;;;;13.25;9.05;;;;;;;;;;5057303;28;20031;-75
2023/03/21 15:46:32;;;;;;;18.30;8.50;;;;;;;;;;5064939;28;20037;-75
2023/03/21 15:49:17;;;;;;;23.25;9.73;;;;;;;;;;5069231;28;20033;-75
2023/03/21 15:51:57;;;;;;;14.70;9.32;;;;;;;;;;5049111;28;20029;-75
2023/03/21 15:54:28;;;;;;;14.75;8.90;;;;;;;;;;5057352;28;20374;-75
2023/03/21 15:57:03;;;;;;;20.35;10.13;;;;;;;;;;5051879;28;20036;-75
2023/03/21 15:59:35;;;;;;;15.68;9.82;;;;;;;;;;5043379;28;20028;-75
2023/03/21 16:02:02;;;;;;;17.25;11.25;;;;;;;;;;5049147;28;20029;-75
2023/03/21 16:04:29;;;;;;;20.10;10.85;;;;;;;;;;5051522;28;20032;-76
2023/03/21 16:07:14;;;;;;;14.25;9.80;;;;;;;;;;5051840;28;20052;-75
2023/03/21 16:09:45;;;;;;;15.88;10.35;;;;;;;;;;5060773;28;20140;-76
2023/03/21 16:12:12;;;;;;;19.30;12.60;;;;;;;;;;5047684;28;20029;-75
2023/03/21 16:14:39;;;;;;;14.93;11.45;;;;;;;;;;5051316;28;20040;-75
2023/03/21 16:17:24;;;;;;;14.45;9.85;;;;;;;;;;5050130;28;20086;-75
2023/03/21 16:19:50;;;;;;;18.85;11.90;;;;;;;;;;5066473;28;20032;-74
2023/03/21 16:22:16;;;;;;;18.98;12.32;;;;;;;;;;5033365;28;20032;-74
2023/03/21 16:24:42;;;;;;;25.20;12.52;;;;;;;;;;5051503;28;20037;-74
2023/03/21 16:27:10;;;;;;;23.00;13.20;;;;;;;;;;5049800;28;20035;-75
2023/03/21 16:29:36;;;;;;;16.13;12.60;;;;;;;;;;5050802;28;20029;-74
2023/03/21 16:32:05;;;;;;;24.55;13.77;;;;;;;;;;5051387;28;20446;-74
2023/03/21 16:34:31;;;;;;;21.58;13.80;;;;;;;;;;5054788;28;20540;-74
2023/03/21 16:36:57;;;;;;;23.10;12.95;;;;;;;;;;5048621;28;20029;-75
2023/03/21 16:39:25;;;;;;;25.50;12.98;;;;;;;;;;5049184;28;20017;-75
2023/03/21 16:41:52;;;;;;;20.73;13.02;;;;;;;;;;5051540;28;20032;-74
2023/03/21 16:44:19;;;;;;;19.40;12.45;;;;;;;;;;5049446;28;20476;-75
2023/03/21 16:46:46;;;;;;;21.20;13.88;;;;;;;;;;5046701;28;20028;-74
2023/03/21 16:49:19;;;;;;;25.38;13.65;;;;;;;;;;5050829;28;20516;-75
2023/03/21 16:51:46;;;;;;;21.25;13.65;;;;;;;;;;5048676;28;20029;-75
2023/03/21 16:54:12;;;;;;;24.42;13.60;;;;;;;;;;5028424;28;20393;-75
2023/03/21 16:56:39;;;;;;;22.65;14.77;;;;;;;;;;5038483;28;20021;-75
2023/03/21 16:59:06;;;;;;;27.20;16.48;;;;;;;;;;5056968;28;20033;-75
2023/03/21 17:01:37;;;;;;;22.80;14.48;;;;;;;;;;5042297;28;20029;-75
2023/03/21 17:04:03;;;;;;;21.88;15.05;;;;;;;;;;5050722;28;20025;-75
2023/03/21 17:06:31;;;;;;;24.90;14.77;;;;;;;;;;5050124;28;20114;-75
2023/03/21 17:08:58;;;;;;;24.15;15.02;;;;;;;;;;5046112;28;20056;-75
2023/03/21 17:11:25;;;;;;;21.02;16.33;;;;;;;;;;5067046;28;20032;-75
2023/03/21 17:13:53;;;;;;;23.63;16.23;;;;;;;;;;5040610;28;20544;-75
2023/03/21 17:16:20;;;;;;;22.95;16.70;;;;;;;;;;5062156;28;20044;-75